sensor_id;sensor_type;location;lat;lon;timestamp;temperature;humidity
13569;DHT22;6856;51.460;7.158;2023-02-15T00:00:41;6.90;57.00
13569;DHT22;6856;51.460;7.158;2023-02-15T00:03:17;6.90;57.20
13569;DHT22;6856;51.460;7.158;2023-02-15T00:05:51;6.90;57.30
13569;DHT22;6856;51.460;7.158;2023-02-15T00:08:26;6.80;57.20
13569;DHT22;6856;51.460;7.158;2023-02-15T00:11:05;6.80;57.30
13569;DHT22;6856;51.460;7.158;2023-02-15T00:13:41;6.70;57.40
13569;DHT22;6856;51.460;7.158;2023-02-15T00:16:15;6.70;57.40
13569;DHT22;6856;51.460;7.158;2023-02-15T00:18:52;6.70;58.00
13569;DHT22;6856;51.460;7.158;2023-02-15T00:21:25;6.60;57.40
13569;DHT22;6856;51.460;7.158;2023-02-15T00:24:03;6.60;57.50
13569;DHT22;6856;51.460;7.158;2023-02-15T00:26:38;6.60;57.50
13569;DHT22;6856;51.460;7.158;2023-02-15T00:29:16;6.50;58.10
13569;DHT22;6856;51.460;7.158;2023-02-15T00:31:51;6.50;57.70
13569;DHT22;6856;51.460;7.158;2023-02-15T00:34:26;6.50;57.50
13569;DHT22;6856;51.460;7.158;2023-02-15T00:37:00;6.70;57.70
13569;DHT22;6856;51.460;7.158;2023-02-15T00:39:37;6.50;57.50
13569;DHT22;6856;51.460;7.158;2023-02-15T00:42:11;6.40;57.60
13569;DHT22;6856;51.460;7.158;2023-02-15T00:44:45;6.50;57.70
13569;DHT22;6856;51.460;7.158;2023-02-15T00:47:20;6.30;57.80
13569;DHT22;6856;51.460;7.158;2023-02-15T00:49:54;6.30;57.80
13569;DHT22;6856;51.460;7.158;2023-02-15T00:52:28;6.30;57.80
13569;DHT22;6856;51.460;7.158;2023-02-15T00:55:04;6.20;57.80
13569;DHT22;6856;51.460;7.158;2023-02-15T00:57:39;6.20;58.00
13569;DHT22;6856;51.460;7.158;2023-02-15T01:00:13;6.20;57.90
13569;DHT22;6856;51.460;7.158;2023-02-15T01:02:49;6.20;58.10
13569;DHT22;6856;51.460;7.158;2023-02-15T01:05:24;6.20;58.00
13569;DHT22;6856;51.460;7.158;2023-02-15T01:07:58;6.10;58.00
13569;DHT22;6856;51.460;7.158;2023-02-15T01:10:35;6.10;58.20
13569;DHT22;6856;51.460;7.158;2023-02-15T01:13:09;6.10;58.00
13569;DHT22;6856;51.460;7.158;2023-02-15T01:15:43;6.10;58.10
13569;DHT22;6856;51.460;7.158;2023-02-15T01:18:19;6.00;58.10
13569;DHT22;6856;51.460;7.158;2023-02-15T01:20:56;6.00;58.00
13569;DHT22;6856;51.460;7.158;2023-02-15T01:23:32;6.00;58.00
13569;DHT22;6856;51.460;7.158;2023-02-15T01:26:09;5.90;57.80
13569;DHT22;6856;51.460;7.158;2023-02-15T01:28:44;5.90;57.80
13569;DHT22;6856;51.460;7.158;2023-02-15T01:31:20;5.90;57.80
13569;DHT22;6856;51.460;7.158;2023-02-15T01:33:54;5.90;58.00
13569;DHT22;6856;51.460;7.158;2023-02-15T01:36:28;5.80;57.90
13569;DHT22;6856;51.460;7.158;2023-02-15T01:39:02;5.80;58.00
13569;DHT22;6856;51.460;7.158;2023-02-15T01:41:39;5.80;57.90
13569;DHT22;6856;51.460;7.158;2023-02-15T01:44:46;5.80;58.20
13569;DHT22;6856;51.460;7.158;2023-02-15T01:47:24;5.80;58.40
13569;DHT22;6856;51.460;7.158;2023-02-15T01:50:10;5.70;58.30
13569;DHT22;6856;51.460;7.158;2023-02-15T01:52:51;5.70;58.30
13569;DHT22;6856;51.460;7.158;2023-02-15T01:55:31;5.60;58.20
13569;DHT22;6856;51.460;7.158;2023-02-15T01:58:10;5.60;58.30
13569;DHT22;6856;51.460;7.158;2023-02-15T02:00:45;5.60;58.30
13569;DHT22;6856;51.460;7.158;2023-02-15T02:03:27;5.60;58.30
13569;DHT22;6856;51.460;7.158;2023-02-15T02:06:09;5.60;58.30
13569;DHT22;6856;51.460;7.158;2023-02-15T02:08:46;5.50;58.30
13569;DHT22;6856;51.460;7.158;2023-02-15T02:11:20;5.50;58.20
13569;DHT22;6856;51.460;7.158;2023-02-15T02:13:56;5.50;58.30
13569;DHT22;6856;51.460;7.158;2023-02-15T02:16:40;5.50;58.50
13569;DHT22;6856;51.460;7.158;2023-02-15T02:23:11;5.40;58.60
13569;DHT22;6856;51.460;7.158;2023-02-15T02:26:32;5.40;58.60
13569;DHT22;6856;51.460;7.158;2023-02-15T02:30:06;5.40;58.50
13569;DHT22;6856;51.460;7.158;2023-02-15T02:33:22;5.30;58.50
13569;DHT22;6856;51.460;7.158;2023-02-15T02:36:15;5.30;58.60
13569;DHT22;6856;51.460;7.158;2023-02-15T02:39:07;5.30;58.70
13569;DHT22;6856;51.460;7.158;2023-02-15T02:41:58;5.20;58.70
13569;DHT22;6856;51.460;7.158;2023-02-15T02:44:38;5.20;58.60
13569;DHT22;6856;51.460;7.158;2023-02-15T02:47:19;5.20;58.70
13569;DHT22;6856;51.460;7.158;2023-02-15T02:50:02;5.20;58.70
13569;DHT22;6856;51.460;7.158;2023-02-15T02:52:40;5.10;58.60
13569;DHT22;6856;51.460;7.158;2023-02-15T02:55:23;5.10;58.60
13569;DHT22;6856;51.460;7.158;2023-02-15T02:58:05;5.10;58.80
13569;DHT22;6856;51.460;7.158;2023-02-15T03:00:46;5.10;59.30
13569;DHT22;6856;51.460;7.158;2023-02-15T03:03:27;5.30;58.80
13569;DHT22;6856;51.460;7.158;2023-02-15T03:06:10;5.00;58.60
13569;DHT22;6856;51.460;7.158;2023-02-15T03:08:53;5.00;58.70
13569;DHT22;6856;51.460;7.158;2023-02-15T03:11:33;5.00;58.70
13569;DHT22;6856;51.460;7.158;2023-02-15T03:14:08;4.60;58.50
13569;DHT22;6856;51.460;7.158;2023-02-15T03:16:46;4.90;58.70
13569;DHT22;6856;51.460;7.158;2023-02-15T03:19:24;4.90;58.70
13569;DHT22;6856;51.460;7.158;2023-02-15T03:22:05;4.90;58.70
13569;DHT22;6856;51.460;7.158;2023-02-15T03:24:46;4.90;58.90
13569;DHT22;6856;51.460;7.158;2023-02-15T03:27:27;4.90;59.00
13569;DHT22;6856;51.460;7.158;2023-02-15T03:30:09;5.10;59.20
13569;DHT22;6856;51.460;7.158;2023-02-15T03:32:46;4.80;59.10
13569;DHT22;6856;51.460;7.158;2023-02-15T03:35:26;4.80;59.10
13569;DHT22;6856;51.460;7.158;2023-02-15T03:38:13;4.80;59.20
13569;DHT22;6856;51.460;7.158;2023-02-15T03:40:56;5.00;59.30
13569;DHT22;6856;51.460;7.158;2023-02-15T03:43:49;4.70;59.10
13569;DHT22;6856;51.460;7.158;2023-02-15T03:46:29;4.70;59.00
13569;DHT22;6856;51.460;7.158;2023-02-15T03:49:09;4.70;59.00
13569;DHT22;6856;51.460;7.158;2023-02-15T03:51:50;4.70;59.00
13569;DHT22;6856;51.460;7.158;2023-02-15T03:54:31;4.70;58.90
13569;DHT22;6856;51.460;7.158;2023-02-15T03:57:21;4.70;59.00
13569;DHT22;6856;51.460;7.158;2023-02-15T04:00:16;4.70;59.00
13569;DHT22;6856;51.460;7.158;2023-02-15T04:03:23;4.60;59.00
13569;DHT22;6856;51.460;7.158;2023-02-15T04:06:03;4.60;59.00
13569;DHT22;6856;51.460;7.158;2023-02-15T04:08:37;4.60;59.00
13569;DHT22;6856;51.460;7.158;2023-02-15T04:11:33;4.60;59.10
13569;DHT22;6856;51.460;7.158;2023-02-15T04:14:07;4.60;58.90
13569;DHT22;6856;51.460;7.158;2023-02-15T04:16:56;4.60;59.00
13569;DHT22;6856;51.460;7.158;2023-02-15T04:19:30;4.60;59.30
13569;DHT22;6856;51.460;7.158;2023-02-15T04:22:21;4.50;58.90
13569;DHT22;6856;51.460;7.158;2023-02-15T04:25:12;4.50;59.10
13569;DHT22;6856;51.460;7.158;2023-02-15T04:27:50;4.50;59.20
13569;DHT22;6856;51.460;7.158;2023-02-15T04:30:26;4.50;59.20
13569;DHT22;6856;51.460;7.158;2023-02-15T04:32:59;4.50;59.20
13569;DHT22;6856;51.460;7.158;2023-02-15T04:35:33;4.50;59.20
13569;DHT22;6856;51.460;7.158;2023-02-15T04:38:08;4.40;59.20
13569;DHT22;6856;51.460;7.158;2023-02-15T04:40:42;4.40;59.20
13569;DHT22;6856;51.460;7.158;2023-02-15T04:43:17;4.40;59.20
13569;DHT22;6856;51.460;7.158;2023-02-15T04:45:51;4.40;59.10
13569;DHT22;6856;51.460;7.158;2023-02-15T04:48:25;4.40;59.30
13569;DHT22;6856;51.460;7.158;2023-02-15T04:50:59;4.40;59.40
13569;DHT22;6856;51.460;7.158;2023-02-15T04:53:32;4.40;59.40
13569;DHT22;6856;51.460;7.158;2023-02-15T04:56:06;4.40;59.50
13569;DHT22;6856;51.460;7.158;2023-02-15T04:58:42;4.30;59.50
13569;DHT22;6856;51.460;7.158;2023-02-15T05:01:16;4.30;59.40
13569;DHT22;6856;51.460;7.158;2023-02-15T05:03:51;4.30;59.50
13569;DHT22;6856;51.460;7.158;2023-02-15T05:06:25;4.40;59.40
13569;DHT22;6856;51.460;7.158;2023-02-15T05:08:59;4.30;59.40
13569;DHT22;6856;51.460;7.158;2023-02-15T05:11:34;4.30;59.40
13569;DHT22;6856;51.460;7.158;2023-02-15T05:14:09;4.30;59.60
13569;DHT22;6856;51.460;7.158;2023-02-15T05:16:43;4.30;59.60
13569;DHT22;6856;51.460;7.158;2023-02-15T05:19:17;4.30;59.50
13569;DHT22;6856;51.460;7.158;2023-02-15T05:21:51;4.30;59.50
13569;DHT22;6856;51.460;7.158;2023-02-15T05:24:25;4.20;59.50
13569;DHT22;6856;51.460;7.158;2023-02-15T05:27:16;4.20;59.50
13569;DHT22;6856;51.460;7.158;2023-02-15T05:30:13;4.20;59.50
13569;DHT22;6856;51.460;7.158;2023-02-15T05:32:48;4.20;59.70
13569;DHT22;6856;51.460;7.158;2023-02-15T05:35:22;4.20;59.60
13569;DHT22;6856;51.460;7.158;2023-02-15T05:37:56;4.20;59.60
13569;DHT22;6856;51.460;7.158;2023-02-15T05:40:30;4.20;59.50
13569;DHT22;6856;51.460;7.158;2023-02-15T05:43:04;4.20;59.60
13569;DHT22;6856;51.460;7.158;2023-02-15T05:45:40;4.20;59.70
13569;DHT22;6856;51.460;7.158;2023-02-15T05:48:13;4.20;59.80
13569;DHT22;6856;51.460;7.158;2023-02-15T05:50:57;4.10;59.70
13569;DHT22;6856;51.460;7.158;2023-02-15T05:53:34;4.10;59.80
13569;DHT22;6856;51.460;7.158;2023-02-15T05:56:10;4.10;59.70
13569;DHT22;6856;51.460;7.158;2023-02-15T05:58:45;4.10;59.80
13569;DHT22;6856;51.460;7.158;2023-02-15T06:01:22;4.10;59.60
13569;DHT22;6856;51.460;7.158;2023-02-15T06:03:56;4.10;59.70
13569;DHT22;6856;51.460;7.158;2023-02-15T06:06:30;4.10;59.70
13569;DHT22;6856;51.460;7.158;2023-02-15T06:09:06;4.10;59.70
13569;DHT22;6856;51.460;7.158;2023-02-15T06:11:40;4.10;59.90
13569;DHT22;6856;51.460;7.158;2023-02-15T06:14:14;4.10;60.00
13569;DHT22;6856;51.460;7.158;2023-02-15T06:16:49;4.00;60.00
13569;DHT22;6856;51.460;7.158;2023-02-15T06:19:23;4.00;60.10
13569;DHT22;6856;51.460;7.158;2023-02-15T06:21:58;4.00;59.90
13569;DHT22;6856;51.460;7.158;2023-02-15T06:24:32;4.00;60.10
13569;DHT22;6856;51.460;7.158;2023-02-15T06:27:05;4.00;60.10
13569;DHT22;6856;51.460;7.158;2023-02-15T06:29:40;4.00;60.10
13569;DHT22;6856;51.460;7.158;2023-02-15T06:32:16;4.00;60.00
13569;DHT22;6856;51.460;7.158;2023-02-15T06:34:49;4.20;60.20
13569;DHT22;6856;51.460;7.158;2023-02-15T06:37:23;4.00;60.20
13569;DHT22;6856;51.460;7.158;2023-02-15T06:39:58;4.00;60.30
13569;DHT22;6856;51.460;7.158;2023-02-15T06:42:34;4.00;60.40
13569;DHT22;6856;51.460;7.158;2023-02-15T06:45:09;3.90;60.40
13569;DHT22;6856;51.460;7.158;2023-02-15T06:47:45;4.10;60.80
13569;DHT22;6856;51.460;7.158;2023-02-15T06:50:19;4.20;60.50
13569;DHT22;6856;51.460;7.158;2023-02-15T06:52:56;3.90;60.40
13569;DHT22;6856;51.460;7.158;2023-02-15T06:55:30;3.90;61.20
13569;DHT22;6856;51.460;7.158;2023-02-15T06:58:04;3.90;60.70
13569;DHT22;6856;51.460;7.158;2023-02-15T07:00:41;3.90;60.60
13569;DHT22;6856;51.460;7.158;2023-02-15T07:03:17;3.90;60.70
13569;DHT22;6856;51.460;7.158;2023-02-15T07:05:54;3.90;60.70
13569;DHT22;6856;51.460;7.158;2023-02-15T07:08:30;3.90;60.90
13569;DHT22;6856;51.460;7.158;2023-02-15T07:11:05;3.90;60.90
13569;DHT22;6856;51.460;7.158;2023-02-15T07:13:57;3.90;60.90
13569;DHT22;6856;51.460;7.158;2023-02-15T07:16:31;3.90;60.90
13569;DHT22;6856;51.460;7.158;2023-02-15T07:19:07;3.90;61.10
13569;DHT22;6856;51.460;7.158;2023-02-15T07:21:41;3.90;61.00
13569;DHT22;6856;51.460;7.158;2023-02-15T07:24:17;3.90;61.00
13569;DHT22;6856;51.460;7.158;2023-02-15T07:26:51;3.90;61.20
13569;DHT22;6856;51.460;7.158;2023-02-15T07:29:25;3.90;61.30
13569;DHT22;6856;51.460;7.158;2023-02-15T07:31:59;3.90;61.30
13569;DHT22;6856;51.460;7.158;2023-02-15T07:34:35;3.90;61.60
13569;DHT22;6856;51.460;7.158;2023-02-15T07:37:09;3.90;61.50
13569;DHT22;6856;51.460;7.158;2023-02-15T07:39:43;3.90;61.90
13569;DHT22;6856;51.460;7.158;2023-02-15T07:42:17;4.00;61.90
13569;DHT22;6856;51.460;7.158;2023-02-15T07:44:51;4.00;61.80
13569;DHT22;6856;51.460;7.158;2023-02-15T07:47:28;4.00;62.40
13569;DHT22;6856;51.460;7.158;2023-02-15T07:50:04;4.10;62.50
13569;DHT22;6856;51.460;7.158;2023-02-15T07:52:39;4.10;62.80
13569;DHT22;6856;51.460;7.158;2023-02-15T07:55:13;4.10;62.60
13569;DHT22;6856;51.460;7.158;2023-02-15T07:57:49;4.20;62.80
13569;DHT22;6856;51.460;7.158;2023-02-15T08:00:25;4.20;63.30
13569;DHT22;6856;51.460;7.158;2023-02-15T08:03:03;4.30;63.10
13569;DHT22;6856;51.460;7.158;2023-02-15T08:05:50;4.40;63.30
13569;DHT22;6856;51.460;7.158;2023-02-15T08:08:25;4.40;63.50
13569;DHT22;6856;51.460;7.158;2023-02-15T08:11:17;4.50;63.90
13569;DHT22;6856;51.460;7.158;2023-02-15T08:14:06;4.60;64.30
13569;DHT22;6856;51.460;7.158;2023-02-15T08:16:43;4.70;64.50
13569;DHT22;6856;51.460;7.158;2023-02-15T08:19:20;4.70;64.80
13569;DHT22;6856;51.460;7.158;2023-02-15T08:21:59;4.80;65.20
13569;DHT22;6856;51.460;7.158;2023-02-15T08:24:35;4.90;65.50
13569;DHT22;6856;51.460;7.158;2023-02-15T08:27:11;5.00;66.00
13569;DHT22;6856;51.460;7.158;2023-02-15T08:29:44;5.10;66.30
13569;DHT22;6856;51.460;7.158;2023-02-15T08:32:19;5.20;66.60
13569;DHT22;6856;51.460;7.158;2023-02-15T08:34:53;5.40;67.00
13569;DHT22;6856;51.460;7.158;2023-02-15T08:37:28;5.50;67.30
13569;DHT22;6856;51.460;7.158;2023-02-15T08:40:02;5.60;67.20
13569;DHT22;6856;51.460;7.158;2023-02-15T08:42:37;5.80;67.30
13569;DHT22;6856;51.460;7.158;2023-02-15T08:45:10;5.90;67.10
13569;DHT22;6856;51.460;7.158;2023-02-15T08:47:44;6.00;67.10
13569;DHT22;6856;51.460;7.158;2023-02-15T08:50:18;6.20;67.20
13569;DHT22;6856;51.460;7.158;2023-02-15T08:52:54;6.30;67.00
13569;DHT22;6856;51.460;7.158;2023-02-15T08:55:29;6.50;66.80
13569;DHT22;6856;51.460;7.158;2023-02-15T08:58:03;6.60;66.30
13569;DHT22;6856;51.460;7.158;2023-02-15T09:00:37;6.80;66.20
13569;DHT22;6856;51.460;7.158;2023-02-15T09:03:10;7.00;66.00
13569;DHT22;6856;51.460;7.158;2023-02-15T09:05:44;7.10;65.80
13569;DHT22;6856;51.460;7.158;2023-02-15T09:08:20;7.20;65.50
13569;DHT22;6856;51.460;7.158;2023-02-15T09:10:54;7.40;65.30
13569;DHT22;6856;51.460;7.158;2023-02-15T09:13:37;7.50;65.20
13569;DHT22;6856;51.460;7.158;2023-02-15T09:16:12;7.70;64.90
13569;DHT22;6856;51.460;7.158;2023-02-15T09:18:48;7.80;64.60
13569;DHT22;6856;51.460;7.158;2023-02-15T09:21:24;8.00;64.30
13569;DHT22;6856;51.460;7.158;2023-02-15T09:24:02;8.10;64.10
13569;DHT22;6856;51.460;7.158;2023-02-15T09:26:39;8.20;63.80
13569;DHT22;6856;51.460;7.158;2023-02-15T09:29:15;8.40;63.50
13569;DHT22;6856;51.460;7.158;2023-02-15T09:31:51;8.50;63.10
13569;DHT22;6856;51.460;7.158;2023-02-15T09:34:25;8.60;62.60
13569;DHT22;6856;51.460;7.158;2023-02-15T09:36:59;8.80;62.20
13569;DHT22;6856;51.460;7.158;2023-02-15T09:39:37;8.90;61.80
13569;DHT22;6856;51.460;7.158;2023-02-15T09:45:45;9.20;61.80
13569;DHT22;6856;51.460;7.158;2023-02-15T09:48:40;9.40;61.80
13569;DHT22;6856;51.460;7.158;2023-02-15T09:51:37;9.60;61.40
13569;DHT22;6856;51.460;7.158;2023-02-15T09:54:34;9.90;61.10
13569;DHT22;6856;51.460;7.158;2023-02-15T09:57:27;9.90;60.90
13569;DHT22;6856;51.460;7.158;2023-02-15T10:00:15;10.00;60.70
13569;DHT22;6856;51.460;7.158;2023-02-15T10:03:31;10.20;60.30
13569;DHT22;6856;51.460;7.158;2023-02-15T10:06:32;10.30;59.90
13569;DHT22;6856;51.460;7.158;2023-02-15T10:09:32;10.70;59.90
13569;DHT22;6856;51.460;7.158;2023-02-15T10:12:44;10.60;59.50
13569;DHT22;6856;51.460;7.158;2023-02-15T10:15:42;10.80;59.20
13569;DHT22;6856;51.460;7.158;2023-02-15T10:18:53;10.90;59.10
13569;DHT22;6856;51.460;7.158;2023-02-15T10:21:43;11.10;58.60
13569;DHT22;6856;51.460;7.158;2023-02-15T10:24:39;11.20;58.60
13569;DHT22;6856;51.460;7.158;2023-02-15T10:27:29;11.40;58.40
13569;DHT22;6856;51.460;7.158;2023-02-15T10:30:12;11.50;58.20
13569;DHT22;6856;51.460;7.158;2023-02-15T10:32:59;11.60;58.10
13569;DHT22;6856;51.460;7.158;2023-02-15T10:35:41;11.70;57.60
13569;DHT22;6856;51.460;7.158;2023-02-15T10:38:31;11.90;57.50
13569;DHT22;6856;51.460;7.158;2023-02-15T10:41:25;12.00;57.20
13569;DHT22;6856;51.460;7.158;2023-02-15T10:44:29;12.10;56.90
13569;DHT22;6856;51.460;7.158;2023-02-15T10:47:28;12.20;56.80
13569;DHT22;6856;51.460;7.158;2023-02-15T10:50:23;12.40;56.70
13569;DHT22;6856;51.460;7.158;2023-02-15T10:53:15;12.50;56.50
13569;DHT22;6856;51.460;7.158;2023-02-15T10:56:05;12.60;56.10
13569;DHT22;6856;51.460;7.158;2023-02-15T10:58:56;12.80;56.00
13569;DHT22;6856;51.460;7.158;2023-02-15T11:01:47;12.90;56.00
13569;DHT22;6856;51.460;7.158;2023-02-15T11:04:48;13.00;55.70
13569;DHT22;6856;51.460;7.158;2023-02-15T11:07:34;13.10;55.30
13569;DHT22;6856;51.460;7.158;2023-02-15T11:10:22;13.20;55.10
13569;DHT22;6856;51.460;7.158;2023-02-15T11:13:05;13.40;54.50
13569;DHT22;6856;51.460;7.158;2023-02-15T11:15:46;13.40;54.40
13569;DHT22;6856;51.460;7.158;2023-02-15T11:18:31;13.50;54.90
13569;DHT22;6856;51.460;7.158;2023-02-15T11:21:11;13.70;54.00
13569;DHT22;6856;51.460;7.158;2023-02-15T11:23:52;13.70;53.90
13569;DHT22;6856;51.460;7.158;2023-02-15T11:26:31;13.80;53.70
13569;DHT22;6856;51.460;7.158;2023-02-15T11:29:11;13.90;53.40
13569;DHT22;6856;51.460;7.158;2023-02-15T11:31:54;14.00;53.30
13569;DHT22;6856;51.460;7.158;2023-02-15T11:34:35;14.10;53.30
13569;DHT22;6856;51.460;7.158;2023-02-15T11:37:20;14.20;52.70
13569;DHT22;6856;51.460;7.158;2023-02-15T11:40:04;14.30;52.70
13569;DHT22;6856;51.460;7.158;2023-02-15T11:42:56;14.40;52.90
13569;DHT22;6856;51.460;7.158;2023-02-15T11:45:33;14.50;52.20
13569;DHT22;6856;51.460;7.158;2023-02-15T11:48:13;14.60;52.20
13569;DHT22;6856;51.460;7.158;2023-02-15T11:50:52;14.70;52.00
13569;DHT22;6856;51.460;7.158;2023-02-15T11:53:32;14.80;51.80
13569;DHT22;6856;51.460;7.158;2023-02-15T11:56:14;15.00;51.70
13569;DHT22;6856;51.460;7.158;2023-02-15T11:58:54;15.00;51.60
13569;DHT22;6856;51.460;7.158;2023-02-15T12:01:33;15.10;51.50
13569;DHT22;6856;51.460;7.158;2023-02-15T12:04:20;15.10;51.30
13569;DHT22;6856;51.460;7.158;2023-02-15T12:07:01;15.20;51.10
13569;DHT22;6856;51.460;7.158;2023-02-15T12:09:45;15.30;51.10
13569;DHT22;6856;51.460;7.158;2023-02-15T12:12:26;15.30;51.00
13569;DHT22;6856;51.460;7.158;2023-02-15T12:15:03;15.40;50.90
13569;DHT22;6856;51.460;7.158;2023-02-15T12:17:39;15.50;50.70
13569;DHT22;6856;51.460;7.158;2023-02-15T12:20:24;15.50;50.80
13569;DHT22;6856;51.460;7.158;2023-02-15T12:23:11;15.60;50.50
13569;DHT22;6856;51.460;7.158;2023-02-15T12:25:51;15.70;50.60
13569;DHT22;6856;51.460;7.158;2023-02-15T12:28:31;15.70;50.50
13569;DHT22;6856;51.460;7.158;2023-02-15T12:31:20;15.80;50.20
13569;DHT22;6856;51.460;7.158;2023-02-15T12:33:57;15.80;49.90
13569;DHT22;6856;51.460;7.158;2023-02-15T12:36:41;15.90;50.10
13569;DHT22;6856;51.460;7.158;2023-02-15T12:39:22;15.90;49.70
13569;DHT22;6856;51.460;7.158;2023-02-15T12:42:02;15.90;50.00
13569;DHT22;6856;51.460;7.158;2023-02-15T12:44:38;16.00;49.80
13569;DHT22;6856;51.460;7.158;2023-02-15T12:47:19;16.00;49.70
13569;DHT22;6856;51.460;7.158;2023-02-15T12:50:21;16.10;49.30
13569;DHT22;6856;51.460;7.158;2023-02-15T12:53:08;16.20;49.30
13569;DHT22;6856;51.460;7.158;2023-02-15T12:55:53;16.20;49.60
13569;DHT22;6856;51.460;7.158;2023-02-15T12:58:30;16.30;49.30
13569;DHT22;6856;51.460;7.158;2023-02-15T13:01:14;16.30;49.40
13569;DHT22;6856;51.460;7.158;2023-02-15T13:03:56;16.40;49.10
13569;DHT22;6856;51.460;7.158;2023-02-15T13:06:34;16.50;49.00
13569;DHT22;6856;51.460;7.158;2023-02-15T13:09:15;16.50;49.20
13569;DHT22;6856;51.460;7.158;2023-02-15T13:11:54;16.60;48.90
13569;DHT22;6856;51.460;7.158;2023-02-15T13:14:31;16.60;48.80
13569;DHT22;6856;51.460;7.158;2023-02-15T13:17:05;16.70;48.70
13569;DHT22;6856;51.460;7.158;2023-02-15T13:19:42;16.80;48.60
13569;DHT22;6856;51.460;7.158;2023-02-15T13:22:21;16.80;48.00
13569;DHT22;6856;51.460;7.158;2023-02-15T13:24:59;16.90;48.00
13569;DHT22;6856;51.460;7.158;2023-02-15T13:27:41;16.90;48.20
13569;DHT22;6856;51.460;7.158;2023-02-15T13:30:23;16.90;47.90
13569;DHT22;6856;51.460;7.158;2023-02-15T13:33:01;17.00;47.80
13569;DHT22;6856;51.460;7.158;2023-02-15T13:35:41;17.00;47.80
13569;DHT22;6856;51.460;7.158;2023-02-15T13:38:43;17.10;47.50
13569;DHT22;6856;51.460;7.158;2023-02-15T13:58:12;17.20;47.20
13569;DHT22;6856;51.460;7.158;2023-02-15T14:01:03;17.40;47.20
13569;DHT22;6856;51.460;7.158;2023-02-15T14:04:08;17.20;47.10
13569;DHT22;6856;51.460;7.158;2023-02-15T14:07:16;17.20;46.60
13569;DHT22;6856;51.460;7.158;2023-02-15T14:10:26;17.20;46.60
13569;DHT22;6856;51.460;7.158;2023-02-15T14:13:49;17.20;46.30
13569;DHT22;6856;51.460;7.158;2023-02-15T14:16:44;17.30;46.20
13569;DHT22;6856;51.460;7.158;2023-02-15T14:19:42;17.20;46.40
13569;DHT22;6856;51.460;7.158;2023-02-15T14:22:29;17.20;46.10
13569;DHT22;6856;51.460;7.158;2023-02-15T14:25:18;17.20;46.00
13569;DHT22;6856;51.460;7.158;2023-02-15T14:28:08;17.20;45.60
13569;DHT22;6856;51.460;7.158;2023-02-15T14:30:51;17.00;45.50
13569;DHT22;6856;51.460;7.158;2023-02-15T14:33:32;17.20;45.40
13569;DHT22;6856;51.460;7.158;2023-02-15T14:36:13;17.10;45.20
13569;DHT22;6856;51.460;7.158;2023-02-15T14:39:03;17.10;45.40
13569;DHT22;6856;51.460;7.158;2023-02-15T14:42:09;17.10;45.10
13569;DHT22;6856;51.460;7.158;2023-02-15T14:44:58;17.10;45.30
13569;DHT22;6856;51.460;7.158;2023-02-15T14:47:42;17.00;45.30
13569;DHT22;6856;51.460;7.158;2023-02-15T14:50:43;17.00;44.70
13569;DHT22;6856;51.460;7.158;2023-02-15T14:53:35;17.00;45.00
13569;DHT22;6856;51.460;7.158;2023-02-15T14:56:20;16.90;44.80
13569;DHT22;6856;51.460;7.158;2023-02-15T14:59:17;16.90;44.80
13569;DHT22;6856;51.460;7.158;2023-02-15T15:01:59;16.80;45.10
13569;DHT22;6856;51.460;7.158;2023-02-15T15:04:56;16.80;45.10
13569;DHT22;6856;51.460;7.158;2023-02-15T15:07:41;16.80;44.60
13569;DHT22;6856;51.460;7.158;2023-02-15T15:10:41;16.80;44.90
13569;DHT22;6856;51.460;7.158;2023-02-15T15:13:37;16.70;44.20
13569;DHT22;6856;51.460;7.158;2023-02-15T15:16:30;16.70;44.40
13569;DHT22;6856;51.460;7.158;2023-02-15T15:22:45;16.60;44.80
13569;DHT22;6856;51.460;7.158;2023-02-15T15:25:41;16.60;44.50
13569;DHT22;6856;51.460;7.158;2023-02-15T15:31:47;16.50;45.00
13569;DHT22;6856;51.460;7.158;2023-02-15T15:35:03;16.50;45.50
13569;DHT22;6856;51.460;7.158;2023-02-15T15:38:10;16.50;45.40
13569;DHT22;6856;51.460;7.158;2023-02-15T15:41:16;16.40;45.40
13569;DHT22;6856;51.460;7.158;2023-02-15T15:48:09;16.30;45.70
13569;DHT22;6856;51.460;7.158;2023-02-15T15:51:00;16.30;45.60
13569;DHT22;6856;51.460;7.158;2023-02-15T15:53:40;16.30;45.60
13569;DHT22;6856;51.460;7.158;2023-02-15T15:56:22;16.20;45.70
13569;DHT22;6856;51.460;7.158;2023-02-15T15:59:04;16.20;45.90
13569;DHT22;6856;51.460;7.158;2023-02-15T16:01:45;16.20;46.00
13569;DHT22;6856;51.460;7.158;2023-02-15T16:04:26;16.10;45.70
13569;DHT22;6856;51.460;7.158;2023-02-15T16:07:22;16.10;45.80
13569;DHT22;6856;51.460;7.158;2023-02-15T16:10:20;16.00;45.80
13569;DHT22;6856;51.460;7.158;2023-02-15T16:12:55;16.00;45.90
13569;DHT22;6856;51.460;7.158;2023-02-15T16:15:34;15.90;44.90
13569;DHT22;6856;51.460;7.158;2023-02-15T16:18:16;15.90;46.50
13569;DHT22;6856;51.460;7.158;2023-02-15T16:20:57;15.80;46.30
13569;DHT22;6856;51.460;7.158;2023-02-15T16:23:57;15.80;46.50
13569;DHT22;6856;51.460;7.158;2023-02-15T16:27:00;15.70;46.70
13569;DHT22;6856;51.460;7.158;2023-02-15T16:30:36;15.60;46.70
13569;DHT22;6856;51.460;7.158;2023-02-15T16:33:12;15.60;46.70
13569;DHT22;6856;51.460;7.158;2023-02-15T16:35:55;15.40;46.60
13569;DHT22;6856;51.460;7.158;2023-02-15T16:41:44;15.30;46.90
13569;DHT22;6856;51.460;7.158;2023-02-15T16:44:22;15.20;47.00
13569;DHT22;6856;51.460;7.158;2023-02-15T16:47:09;15.10;47.00
13569;DHT22;6856;51.460;7.158;2023-02-15T16:49:52;15.00;47.00
13569;DHT22;6856;51.460;7.158;2023-02-15T16:52:34;14.90;47.00
13569;DHT22;6856;51.460;7.158;2023-02-15T16:55:20;14.90;46.30
13569;DHT22;6856;51.460;7.158;2023-02-15T16:58:00;14.80;47.20
13569;DHT22;6856;51.460;7.158;2023-02-15T17:00:39;14.70;47.10
13569;DHT22;6856;51.460;7.158;2023-02-15T17:03:21;14.70;47.30
13569;DHT22;6856;51.460;7.158;2023-02-15T17:06:03;14.60;47.40
13569;DHT22;6856;51.460;7.158;2023-02-15T17:09:03;14.50;47.70
13569;DHT22;6856;51.460;7.158;2023-02-15T17:11:47;14.40;47.50
13569;DHT22;6856;51.460;7.158;2023-02-15T17:14:22;14.40;46.00
13569;DHT22;6856;51.460;7.158;2023-02-15T17:17:05;14.30;47.70
13569;DHT22;6856;51.460;7.158;2023-02-15T17:19:47;14.20;47.60
13569;DHT22;6856;51.460;7.158;2023-02-15T17:22:27;14.20;47.80
13569;DHT22;6856;51.460;7.158;2023-02-15T17:25:05;14.10;47.80
13569;DHT22;6856;51.460;7.158;2023-02-15T17:27:44;14.00;46.80
13569;DHT22;6856;51.460;7.158;2023-02-15T17:30:33;14.00;48.00
13569;DHT22;6856;51.460;7.158;2023-02-15T17:33:25;13.80;48.00
13569;DHT22;6856;51.460;7.158;2023-02-15T17:36:13;13.80;48.10
13569;DHT22;6856;51.460;7.158;2023-02-15T17:39:02;13.70;47.90
13569;DHT22;6856;51.460;7.158;2023-02-15T17:41:43;13.60;48.40
13569;DHT22;6856;51.460;7.158;2023-02-15T17:44:21;13.50;47.80
13569;DHT22;6856;51.460;7.158;2023-02-15T17:46:58;13.50;46.80
13569;DHT22;6856;51.460;7.158;2023-02-15T17:49:34;13.20;46.90
13569;DHT22;6856;51.460;7.158;2023-02-15T17:52:14;13.30;48.50
13569;DHT22;6856;51.460;7.158;2023-02-15T17:54:53;13.30;48.80
13569;DHT22;6856;51.460;7.158;2023-02-15T17:57:44;13.20;48.70
13569;DHT22;6856;51.460;7.158;2023-02-15T18:00:26;13.10;48.70
13569;DHT22;6856;51.460;7.158;2023-02-15T18:03:18;13.10;47.50
13569;DHT22;6856;51.460;7.158;2023-02-15T18:06:12;13.10;49.20
13569;DHT22;6856;51.460;7.158;2023-02-15T18:09:05;13.00;49.30